.
WxDataArchive / Data Records for 2013-06-25
2013-06-24 June 2013 2013-06-26

Data Records for Tuesday, 25 June 2013

Time	Temp	Chill	HIndex	Humid	Dewpt	 Wind 	HiWind	WindDir	Rain 	Barom 
-----	----	-----	------	-----	-----	------	------	-------	-----	----- 
00:00	67.6	67.6	67.6	93	65.5	0	0	---	0.00	29.899 
00:05	67.6	67.6	67.6	93	65.5	0	0	---	0.00	29.899 
00:10	67.6	67.6	67.6	93	65.5	0	0	---	0.00	29.899 
00:15	67.6	67.6	67.6	93	65.5	0	0	---	0.00	29.905 
00:20	67.8	67.8	67.8	93	65.7	0	0	---	0.00	29.905 
00:25	67.8	67.8	67.8	94	66.0	0	2	90	0.00	29.905 
00:30	67.8	67.8	67.8	94	66.0	2	7	270	0.00	29.946 
00:35	67.9	67.9	67.9	94	66.1	0	2	248	0.00	29.946 
00:40	67.9	67.9	67.9	93	65.8	0	3	248	0.00	29.946 
00:45	67.9	67.9	67.9	93	65.8	0	1	270	0.00	29.944 
00:50	67.9	67.9	67.9	93	65.8	0	2	270	0.00	29.944 
00:55	67.9	67.9	67.9	93	65.8	0	1	248	0.00	29.944 
01:00	67.9	67.9	67.9	93	65.8	0	1	248	0.00	29.945 
01:05	67.9	67.9	67.9	93	65.8	0	1	248	0.00	29.945 
01:10	67.9	67.9	67.9	93	65.8	0	1	248	0.00	29.945 
01:15	67.9	67.9	67.9	93	65.8	0	2	248	0.00	29.954 
01:20	67.9	67.9	67.9	93	65.8	0	2	248	0.00	29.954 
01:25	67.9	67.9	67.9	92	65.5	0	1	248	0.00	29.954 
01:30	67.9	67.9	67.9	92	65.5	0	2	248	0.00	29.958 
01:35	68.1	68.1	68.1	91	65.4	0	2	248	0.00	29.958 
01:40	68.1	68.1	68.1	91	65.4	0	1	248	0.00	29.958 
01:45	68.3	68.3	68.3	90	65.2	0	2	248	0.00	29.959 
01:50	68.4	68.4	68.4	90	65.3	0	3	248	0.00	29.959 
01:55	68.6	68.6	68.6	89	65.2	0	2	292	0.00	29.959 
02:00	68.6	68.6	68.6	88	64.9	0	1	292	0.00	29.954 
02:05	68.6	68.6	68.6	88	64.9	0	3	270	0.00	29.954 
02:10	68.6	68.6	68.6	87	64.6	0	2	270	0.00	29.954 
02:15	68.6	68.6	68.6	87	64.6	0	2	270	0.00	29.950 
02:20	68.8	68.8	68.8	86	64.4	0	2	270	0.00	29.950 
02:25	68.8	68.8	68.8	85	64.1	0	0	---	0.00	29.950 
02:30	68.8	68.8	68.8	85	64.1	0	1	270	0.00	29.947 
02:35	68.9	68.9	68.9	85	64.2	0	1	270	0.00	29.947 
02:40	68.9	68.9	68.9	85	64.2	0	1	270	0.00	29.947 
02:45	69.1	69.1	69.1	85	64.4	0	1	270	0.00	29.952 
02:50	69.1	69.1	69.1	85	64.4	0	0	---	0.00	29.952 
02:55	68.9	68.9	68.9	85	64.2	0	1	270	0.00	29.952 
03:00	68.9	68.9	68.9	85	64.2	0	0	---	0.00	29.946 
03:05	68.8	68.8	68.8	86	64.4	0	0	---	0.00	29.946 
03:10	68.8	68.8	68.8	86	64.4	0	0	---	0.00	29.946 
03:15	68.6	68.6	68.6	86	64.2	0	0	---	0.00	29.945 
03:20	68.6	68.6	68.6	87	64.6	0	1	270	0.00	29.945 
03:25	68.8	68.8	68.8	87	64.8	0	0	---	0.00	29.945 
03:30	68.8	68.8	68.8	87	64.8	0	0	---	0.00	29.942 
03:35	68.6	68.6	68.6	87	64.6	0	0	---	0.00	29.942 
03:40	68.6	68.6	68.6	87	64.6	0	1	270	0.00	29.942 
03:45	68.6	68.6	68.6	87	64.6	0	0	---	0.00	29.946 
03:50	68.6	68.6	68.6	87	64.6	0	0	---	0.00	29.946 
03:55	68.6	68.6	68.6	87	64.6	0	1	270	0.00	29.946 
04:00	68.6	68.6	68.6	87	64.6	0	0	---	0.00	29.952 
04:05	68.4	68.4	68.4	87	64.4	0	0	---	0.00	29.952 
04:10	68.4	68.4	68.4	87	64.4	0	0	---	0.00	29.952 
04:15	68.4	68.4	68.4	87	64.4	0	0	---	0.00	29.951 
04:20	68.6	68.6	68.6	87	64.6	0	1	270	0.00	29.951 
04:25	68.8	68.8	68.8	87	64.8	0	0	---	0.00	29.951 
04:30	68.8	68.8	68.8	87	64.8	0	0	---	0.00	29.946 
04:35	68.9	68.9	68.9	87	64.9	0	0	---	0.00	29.946 
04:40	68.9	68.9	68.9	87	64.9	0	1	270	0.00	29.946 
04:45	68.9	68.9	68.9	87	64.9	0	0	---	0.00	29.942 
04:50	69.1	69.1	69.1	88	65.4	0	1	270	0.00	29.942 
04:55	69.1	69.1	69.1	88	65.4	0	0	---	0.00	29.942 
05:00	69.1	69.1	69.1	88	65.4	0	0	---	0.00	29.942 
05:05	69.3	69.3	69.3	89	65.9	0	1	270	0.00	29.942 
05:10	69.4	69.4	69.4	89	66.0	0	1	270	0.00	29.942 
05:15	69.6	69.6	69.6	90	66.5	0	2	270	0.00	29.945 
05:20	69.6	69.6	69.6	90	66.5	0	0	---	0.00	29.945 
05:25	69.6	69.6	69.6	90	66.5	0	1	270	0.00	29.945 
05:30	69.8	69.8	69.8	91	67.0	0	1	270	0.00	29.943 
05:35	69.8	69.8	69.8	91	67.0	0	2	270	0.00	29.943 
05:40	69.9	69.9	69.9	91	67.1	0	1	270	0.00	29.943 
05:45	69.9	69.9	69.9	91	67.1	0	1	270	0.00	29.943 
05:50	69.9	69.9	69.9	92	67.5	0	1	270	0.00	29.943 
05:55	69.9	69.9	69.9	92	67.5	0	1	270	0.00	29.943 
06:00	69.9	69.9	69.9	92	67.5	0	1	270	0.00	29.942 
06:05	69.9	69.9	69.9	92	67.5	0	1	270	0.00	29.942 
06:10	69.9	69.9	69.9	92	67.5	0	1	270	0.00	29.942 
06:15	69.8	69.8	69.8	92	67.4	0	1	270	0.00	29.944 
06:20	69.8	69.8	69.8	92	67.4	0	1	270	0.00	29.944 
06:25	69.8	69.8	69.8	92	67.4	0	1	270	0.00	29.944 
06:30	69.9	69.9	69.9	92	67.5	0	1	270	0.00	29.947 
06:35	69.9	69.9	69.9	92	67.5	0	1	270	0.00	29.947 
06:40	69.9	69.9	69.9	93	67.8	0	1	270	0.00	29.947 
06:45	70.1	70.1	70.1	93	68.0	0	2	270	0.00	29.953 
06:50	70.3	70.3	70.3	92	67.9	0	1	270	0.00	29.953 
06:55	70.3	70.3	70.3	92	67.9	0	1	270	0.00	29.953 
07:00	70.4	70.4	70.4	92	68.0	0	1	270	0.00	29.942 
07:05	70.4	70.4	70.4	92	68.0	0	2	270	0.00	29.942 
07:10	70.6	70.6	70.6	92	68.2	0	1	270	0.00	29.942 
07:15	70.8	70.8	70.8	92	68.4	0	2	270	0.00	29.956 
07:20	70.9	70.9	70.9	92	68.5	0	1	270	0.00	29.956 
07:25	71.1	71.1	71.1	92	68.7	0	1	270	0.00	29.956 
07:30	71.3	71.3	71.3	91	68.5	0	2	270	0.00	29.965 
07:35	71.5	71.5	71.5	91	68.7	0	1	270	0.00	29.965 
07:40	71.6	71.6	71.6	90	68.5	0	2	270	0.00	29.965 
07:45	71.8	71.8	71.8	89	68.4	0	2	270	0.00	29.957 
07:50	71.8	71.8	71.8	89	68.4	0	3	270	0.00	29.957 
07:55	72.0	72.0	72.0	88	68.2	0	3	270	0.00	29.957 
08:00	72.3	72.3	72.3	88	68.5	0	2	270	0.00	29.957 
08:05	72.8	72.8	72.8	87	68.7	0	2	270	0.00	29.957 
08:10	73.0	73.0	73.0	86	68.6	1	3	292	0.00	29.957 
08:15	73.5	73.5	73.5	85	68.7	1	3	292	0.00	29.944 
08:20	73.9	73.9	73.9	84	68.7	0	2	292	0.00	29.944 
08:25	74.4	74.4	74.4	83	68.9	0	3	292	0.00	29.944 
08:30	74.7	74.7	74.7	83	69.2	1	3	292	0.00	29.938 
08:35	75.1	75.1	75.6	81	68.9	0	3	0	0.00	29.938 
08:40	75.4	75.4	76.0	81	69.1	0	2	292	0.00	29.938 
08:45	75.6	75.6	76.4	80	69.0	1	3	292	0.00	29.940 
08:50	75.6	75.6	76.5	79	68.6	2	4	292	0.00	29.940 
08:55	75.4	75.4	76.1	80	68.8	1	3	292	0.00	29.940 
09:00	75.4	75.4	76.0	81	69.1	0	1	315	0.00	29.946 
09:05	75.6	75.6	76.4	80	69.0	1	2	315	0.00	29.946 
09:10	76.0	76.0	77.0	80	69.4	0	1	315	0.00	29.946 
09:15	76.0	76.0	77.0	80	69.4	0	2	315	0.00	29.961 
09:20	76.1	76.1	77.1	80	69.5	0	1	315	0.00	29.961 
09:25	76.5	76.5	77.8	80	69.9	1	3	315	0.00	29.961 
09:30	76.3	76.3	77.5	79	69.3	0	2	315	0.00	29.969 
09:35	76.1	76.1	77.2	79	69.1	1	3	22	0.00	29.969 
09:40	76.3	76.3	77.5	80	69.7	0	2	22	0.00	29.969 
09:45	76.5	76.5	77.8	79	69.5	0	1	22	0.00	29.974 
09:50	76.3	76.3	77.5	79	69.3	0	1	22	0.00	29.974 
09:55	76.7	76.7	78.1	80	70.0	0	2	22	0.00	29.974 
10:00	76.7	76.7	78.2	78	69.3	0	1	22	0.00	29.968 
10:05	76.7	76.7	78.1	80	70.0	0	1	22	0.00	29.968 
10:10	76.8	76.8	78.3	78	69.4	1	4	22	0.00	29.968 
10:15	76.8	76.8	78.3	78	69.4	0	3	22	0.00	29.965 
10:20	77.0	77.0	78.6	79	70.0	0	1	22	0.00	29.965 
10:25	77.6	77.6	79.6	77	69.8	0	1	22	0.00	29.965 
10:30	78.1	78.1	80.4	76	69.9	1	4	22	0.00	29.963 
10:35	78.3	78.3	80.6	75	69.7	1	3	45	0.00	29.963 
10:40	78.6	78.6	81.2	76	70.4	0	2	45	0.00	29.963 
10:45	78.8	78.8	81.5	75	70.2	1	5	45	0.00	29.951 
10:50	79.2	79.2	82.1	75	70.6	0	2	68	0.00	29.951 
10:55	79.8	79.8	83.0	73	70.4	1	3	68	0.00	29.951 
11:00	80.3	80.3	83.7	72	70.4	1	3	68	0.00	29.947 
11:05	80.7	80.7	84.6	73	71.2	0	2	68	0.00	29.947 
11:10	81.2	81.2	85.5	73	71.7	0	1	68	0.00	29.947 
11:15	81.6	81.6	86.1	72	71.7	0	1	68	0.00	29.944 
11:20	81.8	81.8	86.1	70	71.0	1	3	68	0.00	29.944 
11:25	81.6	81.6	85.7	70	70.8	1	3	270	0.00	29.944 
11:30	81.6	81.6	85.9	71	71.3	0	3	270	0.00	29.945 
11:35	81.8	81.8	86.3	71	71.5	0	2	292	0.00	29.945 
11:40	81.4	81.4	85.5	71	71.1	1	4	292	0.00	29.945 
11:45	81.2	81.2	85.0	70	70.5	1	3	292	0.00	29.938 
11:50	81.4	81.4	85.7	72	71.5	1	4	292	0.00	29.938 
11:55	81.8	81.8	86.3	71	71.5	1	3	225	0.00	29.938 
12:00	82.4	82.4	87.4	71	72.0	1	3	225	0.00	29.926 
12:05	82.6	82.6	87.3	69	71.4	1	4	292	0.00	29.926 
12:10	83.4	83.4	89.2	70	72.6	1	3	292	0.00	29.926 
12:15	84.0	84.0	90.2	69	72.7	1	3	292	0.00	29.920 
12:20	84.0	84.0	89.5	67	71.8	2	4	292	0.00	29.920 
12:25	83.8	83.8	89.1	67	71.6	2	7	270	0.00	29.920 
12:30	84.0	84.0	90.2	69	72.7	1	3	270	0.00	29.911 
12:35	84.3	84.3	89.5	65	71.2	2	6	270	0.00	29.911 
12:40	84.7	84.7	90.3	65	71.6	2	5	270	0.00	29.911 
12:45	84.9	84.9	90.7	65	71.8	2	5	270	0.00	29.911 
12:50	85.3	85.3	91.5	65	72.2	2	4	270	0.00	29.911 
12:55	85.5	85.5	91.2	63	71.4	2	6	270	0.00	29.911 
13:00	85.5	85.5	91.2	63	71.4	2	6	270	0.00	29.914 
13:05	85.5	85.5	91.6	64	71.9	3	6	270	0.00	29.914 
13:10	85.7	85.7	91.6	63	71.6	2	6	270	0.00	29.914 
13:15	86.1	86.1	92.8	64	72.5	1	5	270	0.00	29.911 
13:20	85.9	85.9	92.0	63	71.8	3	6	270	0.00	29.911 
13:25	85.9	85.9	91.6	62	71.3	2	4	270	0.00	29.911 
13:30	85.7	85.7	91.2	62	71.1	3	5	270	0.00	29.910 
13:35	85.7	85.7	92.0	64	72.1	3	5	270	0.00	29.910 
13:40	86.1	86.1	92.4	63	72.0	3	6	270	0.00	29.910 
13:45	86.5	86.5	92.1	60	70.9	2	5	270	0.00	29.908 
13:50	87.0	87.0	93.1	60	71.4	2	5	270	0.00	29.908 
13:55	87.4	87.4	93.9	60	71.8	2	6	270	0.00	29.908 
14:00	87.2	87.2	93.5	60	71.6	1	4	270	0.00	29.902 
14:05	87.0	87.0	93.9	62	72.4	1	4	270	0.00	29.902 
14:10	86.1	86.1	91.7	61	71.0	2	4	270	0.00	29.902 
14:15	85.7	85.7	91.6	63	71.6	2	4	270	0.00	29.898 
14:20	85.1	85.1	90.8	64	71.5	2	4	292	0.00	29.898 
14:25	84.7	84.7	89.6	63	70.7	3	6	270	0.00	29.898 
14:30	84.9	84.9	90.0	63	70.9	2	4	270	0.00	29.890 
14:35	85.5	85.5	91.6	64	71.9	2	5	270	0.00	29.890 
14:40	86.5	86.5	92.8	62	71.9	2	5	270	0.00	29.890 
14:45	87.2	87.2	94.3	62	72.6	1	3	270	0.00	29.877 
14:50	87.6	87.6	94.3	60	72.0	2	6	270	0.00	29.877 
14:55	87.8	87.8	94.7	60	72.1	1	5	270	0.00	29.877 
15:00	87.8	87.8	94.3	59	71.7	1	4	270	0.00	29.868 
15:05	87.6	87.6	94.3	60	72.0	1	4	270	0.00	29.868 
15:10	87.8	87.8	93.8	58	71.1	1	3	270	0.00	29.868 
15:15	87.8	87.8	92.6	55	69.6	1	5	292	0.00	29.862 
15:20	87.6	87.6	93.0	57	70.4	1	4	292	0.00	29.862 
15:25	87.2	87.2	92.3	57	70.1	2	5	292	0.00	29.862 
15:30	87.0	87.0	92.7	59	70.9	1	3	292	0.00	29.856 
15:35	87.2	87.2	93.5	60	71.6	1	3	292	0.00	29.856 
15:40	87.6	87.6	92.2	55	69.4	1	6	292	0.00	29.856 
15:45	88.0	88.0	92.6	54	69.2	2	5	270	0.00	29.848 
15:50	88.2	88.2	92.5	53	68.9	1	7	270	0.00	29.848 
15:55	88.4	88.4	92.9	53	69.1	2	7	248	0.00	29.848 
16:00	88.6	88.6	94.6	56	70.9	1	2	248	0.00	29.846 
16:05	88.4	88.4	93.3	54	69.6	2	9	248	0.00	29.846 
16:10	88.4	88.4	93.3	54	69.6	2	4	270	0.00	29.846 
16:15	88.6	88.6	92.9	52	68.7	2	6	270	0.00	29.841 
16:20	88.8	88.8	92.8	51	68.3	2	9	248	0.00	29.841 
16:25	89.0	89.0	93.2	51	68.5	2	6	270	0.00	29.841 
16:30	89.5	89.5	93.7	50	68.4	2	5	270	0.00	29.830 
16:35	89.7	89.7	94.9	52	69.7	2	5	270	0.00	29.830 
16:40	89.9	89.9	93.5	48	67.5	2	7	270	0.00	29.830 
16:45	89.7	89.7	92.4	46	66.1	3	10	270	0.00	29.830 
16:50	89.7	89.7	93.2	48	67.4	2	5	270	0.00	29.830 
16:55	89.7	89.7	92.8	47	66.7	3	10	270	0.00	29.830 
17:00	89.9	89.9	92.7	46	66.3	2	5	248	0.00	29.827 
17:05	89.9	89.9	93.1	47	66.9	2	5	270	0.00	29.827 
17:10	89.9	89.9	93.5	48	67.5	2	6	270	0.00	29.827 
17:15	89.9	89.9	93.5	48	67.5	2	5	270	0.00	29.821 
17:20	89.9	89.9	93.5	48	67.5	2	6	292	0.00	29.821 
17:25	89.9	89.9	92.7	46	66.3	2	7	270	0.00	29.821 
17:30	89.7	89.7	92.8	47	66.7	2	8	248	0.00	29.816 
17:35	89.5	89.5	92.4	47	66.6	3	6	270	0.00	29.816 
17:40	89.3	89.3	91.7	46	65.8	3	8	270	0.00	29.816 
17:45	89.3	89.3	92.5	48	67.0	2	5	270	0.00	29.814 
17:50	89.3	89.3	92.5	48	67.0	2	6	270	0.00	29.814 
17:55	89.5	89.5	93.2	49	67.8	1	4	248	0.00	29.814 
18:00	89.3	89.3	92.9	49	67.6	1	4	270	0.00	29.803 
18:05	89.3	89.3	93.7	51	68.8	1	2	270	0.00	29.803 
18:10	88.8	88.8	92.4	50	67.7	1	4	270	0.00	29.803 
18:15	88.6	88.6	92.1	50	67.5	1	4	270	0.00	29.796 
18:20	88.6	88.6	91.3	48	66.4	1	6	248	0.00	29.796 
18:25	88.6	88.6	91.0	47	65.7	2	4	248	0.00	29.796 
18:30	88.4	88.4	91.0	48	66.2	2	5	270	0.00	29.792 
18:35	88.2	88.2	90.7	48	66.0	2	5	292	0.00	29.792 
18:40	88.0	88.0	91.0	50	67.0	1	4	248	0.00	29.792 
18:45	87.6	87.6	89.7	48	65.4	1	3	248	0.00	29.795 
18:50	87.6	87.6	89.7	48	65.4	2	6	270	0.00	29.795 
18:55	87.4	87.4	89.7	49	65.9	2	5	270	0.00	29.795 
19:00	87.4	87.4	89.7	49	65.9	2	5	270	0.00	29.800 
19:05	87.2	87.2	90.1	51	66.8	1	3	270	0.00	29.800 
19:10	87.2	87.2	90.4	52	67.4	1	4	270	0.00	29.800 
19:15	87.0	87.0	90.4	53	67.8	1	5	270	0.00	29.798 
19:20	86.7	86.7	90.3	54	68.0	1	3	270	0.00	29.798 
19:25	86.7	86.7	90.3	54	68.0	1	2	270	0.00	29.798 
19:30	86.7	86.7	90.3	54	68.0	1	3	270	0.00	29.800 
19:35	86.7	86.7	90.6	55	68.6	0	2	270	0.00	29.800 
19:40	86.7	86.7	90.3	54	68.0	1	3	270	0.00	29.800 
19:45	86.5	86.5	90.3	55	68.4	1	4	270	0.00	29.796 
19:50	86.5	86.5	90.3	55	68.4	1	3	270	0.00	29.796 
19:55	86.3	86.3	89.9	55	68.2	1	3	270	0.00	29.796 
20:00	86.3	86.3	90.2	56	68.7	0	2	270	0.00	29.793 
20:05	85.9	85.9	89.6	56	68.3	0	2	270	0.00	29.793 
20:10	85.7	85.7	89.5	57	68.7	0	1	270	0.00	29.793 
20:15	85.7	85.7	89.5	57	68.7	0	2	270	0.00	29.793 
20:20	85.5	85.5	89.2	57	68.5	0	2	270	0.00	29.793 
20:25	85.3	85.3	88.8	57	68.3	0	2	270	0.00	29.793 
20:30	85.1	85.1	88.8	58	68.6	0	4	270	0.00	29.795 
20:35	84.9	84.9	88.2	57	67.9	1	4	315	0.00	29.795 
20:40	84.7	84.7	87.9	57	67.7	1	4	292	0.00	29.795 
20:45	84.5	84.5	87.8	58	68.1	0	2	292	0.00	29.799 
20:50	84.3	84.3	87.5	58	67.9	0	1	292	0.00	29.799 
20:55	84.1	84.1	87.2	58	67.7	0	2	270	0.00	29.799 
21:00	84.0	84.0	87.0	58	67.6	0	1	270	0.00	29.798 
21:05	83.8	83.8	86.7	58	67.4	0	1	270	0.00	29.798 
21:10	83.8	83.8	86.9	59	67.9	0	1	270	0.00	29.798 
21:15	83.4	83.4	86.3	59	67.5	0	2	270	0.00	29.796 
21:20	83.4	83.4	86.3	59	67.5	0	2	292	0.00	29.796 
21:25	83.4	83.4	86.3	59	67.5	0	2	292	0.00	29.796 
21:30	83.4	83.4	86.5	60	68.0	0	1	292	0.00	29.801 
21:35	83.2	83.2	86.2	60	67.8	0	1	292	0.00	29.801 
21:40	83.0	83.0	85.9	60	67.7	0	2	292	0.00	29.801 
21:45	82.8	82.8	85.6	60	67.5	0	3	292	0.00	29.806 
21:50	82.8	82.8	85.8	61	67.9	0	2	292	0.00	29.806 
21:55	82.6	82.6	85.5	61	67.8	0	1	292	0.00	29.806 
22:00	82.4	82.4	85.4	62	68.0	0	0	---	0.00	29.822 
22:05	82.2	82.2	84.9	61	67.4	0	1	292	0.00	29.822 
22:10	82.2	82.2	85.3	63	68.3	0	9	315	0.00	29.822 
22:15	80.3	80.3	81.9	58	64.2	2	8	112	0.00	29.837 
22:20	77.9	77.9	79.6	62	63.8	2	7	112	0.00	29.837 
22:25	76.0	76.0	77.8	66	63.8	3	7	112	0.00	29.837 
22:30	74.9	74.9	74.9	69	64.0	3	7	90	0.00	29.842 
22:35	74.0	74.0	74.0	73	64.8	5	12	90	0.00	29.842 
22:40	73.3	73.3	73.3	76	65.3	5	12	112	0.00	29.842 
22:45	72.8	72.8	72.8	78	65.5	4	10	315	0.00	29.888 
22:50	71.8	71.8	71.8	82	66.0	2	6	248	0.02	29.888 
22:55	71.1	71.1	71.1	85	66.4	1	6	68	0.01	29.888 
23:00	70.4	70.4	70.4	87	66.3	1	5	315	0.00	29.885 
23:05	70.1	70.1	70.1	88	66.4	1	4	315	0.00	29.885 
23:10	69.8	69.8	69.8	90	66.7	0	2	248	0.02	29.885 
23:15	69.8	69.8	69.8	91	67.0	0	1	248	0.05	29.896 
23:20	69.8	69.8	69.8	91	67.0	0	3	248	0.01	29.896 
23:25	69.6	69.6	69.6	91	66.8	0	3	248	0.11	29.896 
23:30	69.6	69.6	69.6	92	67.2	0	1	248	0.01	29.892 
23:35	69.4	69.4	69.4	92	67.0	0	2	248	0.00	29.892 
23:40	69.4	69.4	69.4	92	67.0	0	2	248	0.00	29.892 
23:45	69.3	69.3	69.3	92	66.9	0	0	---	0.00	29.876 
23:50	69.3	69.3	69.3	92	66.9	0	1	248	0.00	29.876 
23:55	69.3	69.3	69.3	93	67.2	0	0	---	0.00	29.876 

CoCoRaHS
IN-AL-39
A2 Web Hosting
Creative Commons License
GoDaddy
search engine by freefind advanced

loaded 2018-11-20 06:40:20 • last modified 2010-11-18 10:43:29
Privacy PolicyDisclaimer
• wx.awcolley.com is powered by PmWiki v.2002016 •
• all content (unless otherwise noted) © 2018 A W Colley